Time;durP1;ratioP1;P1;durP2;ratioP2;P2;SDS_P1;SDS_P2;PMS_P1;PMS_P2;Temp;Humidity;BMP_temperature;BMP_pressure;BME280_temperature;BME280_humidity;BME280_pressure;Samples;Min_cycle;Max_cycle;Signal;HPM_P1;HPM_P2
2023/10/18 00:00:58;;;;;;;32.38;15.27;;;;;;;;;;5073572;28;20048;-73
2023/10/18 00:03:30;;;;;;;29.15;13.15;;;;;;;;;;5090163;28;20132;-74
2023/10/18 00:06:06;;;;;;;27.88;14.70;;;;;;;;;;5073617;28;20051;-73
2023/10/18 00:08:32;;;;;;;26.65;13.18;;;;;;;;;;5070903;28;20135;-76
2023/10/18 00:11:00;;;;;;;34.03;13.70;;;;;;;;;;5073409;28;20041;-73
2023/10/18 00:13:26;;;;;;;31.48;14.52;;;;;;;;;;5070284;28;20507;-73
2023/10/18 00:15:59;;;;;;;41.45;15.43;;;;;;;;;;5069675;28;20922;-73
2023/10/18 00:18:25;;;;;;;34.78;16.33;;;;;;;;;;5070273;28;20054;-73
2023/10/18 00:20:59;;;;;;;31.95;15.55;;;;;;;;;;5069835;28;20080;-73
2023/10/18 00:23:25;;;;;;;33.67;14.18;;;;;;;;;;5103012;28;20041;-74
2023/10/18 00:25:51;;;;;;;38.78;16.38;;;;;;;;;;5100935;28;20071;-73
2023/10/18 00:28:19;;;;;;;35.25;16.13;;;;;;;;;;5073554;28;20052;-73
2023/10/18 00:30:45;;;;;;;37.00;17.40;;;;;;;;;;5071548;28;20131;-73
2023/10/18 00:33:12;;;;;;;35.60;17.10;;;;;;;;;;5090506;28;20093;-73
2023/10/18 00:35:41;;;;;;;34.00;15.88;;;;;;;;;;5089785;28;20052;-73
2023/10/18 00:38:14;;;;;;;36.25;16.23;;;;;;;;;;5089425;28;20117;-74
2023/10/18 00:40:40;;;;;;;32.22;14.85;;;;;;;;;;5036643;28;20087;-73
2023/10/18 00:43:16;;;;;;;39.17;17.52;;;;;;;;;;5069937;28;20045;-73
2023/10/18 00:45:47;;;;;;;32.53;15.73;;;;;;;;;;5068830;28;20053;-74
2023/10/18 00:48:13;;;;;;;30.52;15.02;;;;;;;;;;5103347;28;20052;-74
2023/10/18 00:50:43;;;;;;;38.60;15.88;;;;;;;;;;5110239;27;20090;-75
2023/10/18 00:53:09;;;;;;;51.72;20.58;;;;;;;;;;5092379;28;20169;-73
2023/10/18 00:55:35;;;;;;;33.92;17.08;;;;;;;;;;5097180;28;20048;-74
2023/10/18 00:58:08;;;;;;;37.42;15.95;;;;;;;;;;5096208;28;20112;-74
2023/10/18 01:00:35;;;;;;;59.15;20.33;;;;;;;;;;5071701;28;20117;-74
2023/10/18 01:03:06;;;;;;;68.22;23.98;;;;;;;;;;5056991;28;20040;-74
2023/10/18 01:05:33;;;;;;;43.92;18.88;;;;;;;;;;5061319;28;20127;-73
2023/10/18 01:07:59;;;;;;;38.55;18.40;;;;;;;;;;5109546;28;20043;-74
2023/10/18 01:10:25;;;;;;;34.65;16.75;;;;;;;;;;5086091;28;20036;-75
2023/10/18 01:12:54;;;;;;;;;;;;;;;;;;5075590;28;20507;-74
2023/10/18 01:15:21;;;;;;;41.42;17.48;;;;;;;;;;5056750;28;19967;-73
2023/10/18 01:17:47;;;;;;;34.33;16.20;;;;;;;;;;5079849;28;20050;-73
2023/10/18 01:22:55;;;;;;;44.75;19.70;;;;;;;;;;5091879;28;20098;-74
2023/10/18 01:25:21;;;;;;;;;;;;;;;;;;5092567;28;20123;-73
2023/10/18 01:27:47;;;;;;;44.35;17.77;;;;;;;;;;5092353;28;19955;-73
2023/10/18 01:30:16;;;;;;;44.28;19.10;;;;;;;;;;5076188;28;20062;-73
2023/10/18 01:32:44;;;;;;;43.28;19.02;;;;;;;;;;5092387;28;20039;-77
2023/10/18 01:35:13;;;;;;;40.50;18.27;;;;;;;;;;5059227;28;20388;-73
2023/10/18 01:37:39;;;;;;;48.88;20.42;;;;;;;;;;5092514;28;20051;-73
2023/10/18 01:40:21;;;;;;;49.10;19.92;;;;;;;;;;5090741;28;20044;-73
2023/10/18 01:42:50;;;;;;;59.00;20.77;;;;;;;;;;5088601;28;20040;-73
2023/10/18 01:45:22;;;;;;;65.38;18.52;;;;;;;;;;5086892;28;20057;-73
2023/10/18 01:47:51;;;;;;;44.78;19.60;;;;;;;;;;5103384;28;20054;-73
2023/10/18 01:50:18;;;;;;;50.25;19.83;;;;;;;;;;5074886;28;20400;-73
2023/10/18 01:52:45;;;;;;;52.05;21.65;;;;;;;;;;5090989;28;20651;-76
2023/10/18 01:55:12;;;;;;;54.42;18.25;;;;;;;;;;5105565;28;20045;-73
2023/10/18 01:57:38;;;;;;;58.97;22.10;;;;;;;;;;5069067;28;20568;-73
2023/10/18 02:00:05;;;;;;;34.72;16.20;;;;;;;;;;5109200;27;20046;-73
2023/10/18 02:02:32;;;;;;;59.63;20.42;;;;;;;;;;5075246;28;20047;-73
2023/10/18 02:04:59;;;;;;;53.20;21.02;;;;;;;;;;5108579;27;20048;-73
2023/10/18 02:07:25;;;;;;;68.38;22.27;;;;;;;;;;5089782;28;20040;-73
2023/10/18 02:09:57;;;;;;;57.00;22.75;;;;;;;;;;5082480;28;20050;-73
2023/10/18 02:12:27;;;;;;;54.70;21.63;;;;;;;;;;5099169;28;20527;-73
2023/10/18 02:14:55;;;;;;;40.88;19.45;;;;;;;;;;5087438;28;20044;-73
2023/10/18 02:17:21;;;;;;;38.90;18.38;;;;;;;;;;5116971;27;20052;-73
2023/10/18 02:19:47;;;;;;;;;;;;;;;;;;5074886;28;20398;-75
2023/10/18 02:22:13;;;;;;;44.00;18.70;;;;;;;;;;5091397;28;19920;-73
2023/10/18 02:24:42;;;;;;;;;;;;;;;;;;5091425;28;20071;-73
2023/10/18 02:27:15;;;;;;;49.58;17.92;;;;;;;;;;5082535;28;19933;-73
2023/10/18 02:29:42;;;;;;;33.20;15.13;;;;;;;;;;5083147;28;20398;-73
2023/10/18 02:34:53;;;;;;;52.72;21.83;;;;;;;;;;5084266;28;20048;-73
2023/10/18 02:37:24;;;;;;;49.33;19.77;;;;;;;;;;5077340;28;20195;-74
2023/10/18 02:39:51;;;;;;;54.45;19.65;;;;;;;;;;5077888;28;20049;-74
2023/10/18 02:42:18;;;;;;;52.50;22.90;;;;;;;;;;5090839;28;20119;-73
2023/10/18 02:44:44;;;;;;;37.35;18.23;;;;;;;;;;5074399;28;20052;-73
2023/10/18 02:47:22;;;;;;;39.85;18.73;;;;;;;;;;5073939;28;21227;-73
2023/10/18 02:49:51;;;;;;;41.95;16.75;;;;;;;;;;5091586;28;20113;-73
2023/10/18 02:52:17;;;;;;;46.42;20.15;;;;;;;;;;5090857;28;20044;-73
2023/10/18 02:54:45;;;;;;;37.00;17.83;;;;;;;;;;5090412;28;20044;-73
2023/10/18 02:57:13;;;;;;;47.17;19.58;;;;;;;;;;5090906;28;20055;-73
2023/10/18 02:59:41;;;;;;;54.60;22.05;;;;;;;;;;5089425;28;20093;-73
2023/10/18 03:02:17;;;;;;;46.97;19.50;;;;;;;;;;5083365;28;20050;-73
2023/10/18 03:04:43;;;;;;;39.10;18.50;;;;;;;;;;5060738;28;20122;-73
2023/10/18 03:07:13;;;;;;;;;;;;;;;;;;5093882;28;20048;-75
2023/10/18 03:09:39;;;;;;;44.38;19.38;;;;;;;;;;5077724;28;19920;-74
2023/10/18 03:12:15;;;;;;;51.60;22.05;;;;;;;;;;5073320;28;20047;-73
2023/10/18 03:14:48;;;;;;;30.98;16.20;;;;;;;;;;5090802;28;20073;-73
2023/10/18 03:19:42;;;;;;;32.45;16.95;;;;;;;;;;5091030;28;20044;-74
2023/10/18 03:22:10;;;;;;;33.42;15.95;;;;;;;;;;5089443;28;20524;-73
2023/10/18 03:24:37;;;;;;;56.03;20.25;;;;;;;;;;5087705;28;20040;-73
2023/10/18 03:27:08;;;;;;;45.28;19.80;;;;;;;;;;5069850;28;20532;-73
2023/10/18 03:29:37;;;;;;;37.50;18.05;;;;;;;;;;5063125;28;20044;-73
2023/10/18 03:32:06;;;;;;;50.90;22.65;;;;;;;;;;5091594;28;20044;-73
2023/10/18 03:34:35;;;;;;;38.63;18.02;;;;;;;;;;5074206;28;20072;-73
2023/10/18 03:37:04;;;;;;;58.95;21.75;;;;;;;;;;5072859;28;20052;-73
2023/10/18 03:39:31;;;;;;;48.90;21.40;;;;;;;;;;5090452;28;20451;-73
2023/10/18 03:41:58;;;;;;;52.35;18.73;;;;;;;;;;5107427;28;20048;-76
2023/10/18 03:44:28;;;;;;;50.90;22.95;;;;;;;;;;5088665;28;20072;-76
2023/10/18 03:47:03;;;;;;;34.63;17.55;;;;;;;;;;5054159;28;20123;-73
2023/10/18 03:52:16;;;;;;;35.88;16.92;;;;;;;;;;5075021;28;20140;-76
2023/10/18 03:57:39;;;;;;;36.58;17.35;;;;;;;;;;5087859;28;20055;-73
2023/10/18 04:02:59;;;;;;;39.15;18.25;;;;;;;;;;5070618;28;20136;-73
2023/10/18 04:05:41;;;;;;;36.63;18.45;;;;;;;;;;5070600;28;20052;-74
2023/10/18 04:08:08;;;;;;;35.28;18.20;;;;;;;;;;5069514;28;20490;-73
2023/10/18 04:10:37;;;;;;;47.53;21.95;;;;;;;;;;5086690;28;20049;-73
2023/10/18 04:13:10;;;;;;;39.22;19.67;;;;;;;;;;5070369;28;20049;-73
2023/10/18 04:15:37;;;;;;;37.85;18.55;;;;;;;;;;5109324;28;20048;-73
2023/10/18 04:20:33;;;;;;;54.13;20.50;;;;;;;;;;5090587;28;20094;-73
2023/10/18 04:23:00;;;;;;;50.13;21.05;;;;;;;;;;5081358;28;20054;-77
2023/10/18 04:25:26;;;;;;;47.53;21.88;;;;;;;;;;5084424;28;20040;-73
2023/10/18 04:27:59;;;;;;;40.92;20.45;;;;;;;;;;5074247;28;20041;-73
2023/10/18 04:30:25;;;;;;;39.05;18.65;;;;;;;;;;5073645;28;20207;-73
2023/10/18 04:32:59;;;;;;;46.40;21.15;;;;;;;;;;5074172;28;20044;-73
2023/10/18 04:35:40;;;;;;;47.78;19.27;;;;;;;;;;5091611;28;20048;-73
2023/10/18 04:38:21;;;;;;;67.45;26.77;;;;;;;;;;5085319;28;20059;-73
2023/10/18 04:43:27;;;;;;;59.85;23.85;;;;;;;;;;5107190;28;20068;-73
2023/10/18 04:45:57;;;;;;;33.22;17.73;;;;;;;;;;5081340;28;20074;-73
2023/10/18 04:48:59;;;;;;;33.95;16.63;;;;;;;;;;5076675;28;20210;-73
2023/10/18 04:51:18;;;;;;;40.50;17.88;;;;;;;;;;5092957;28;20132;-73
2023/10/18 04:53:45;;;;;;;39.80;18.95;;;;;;;;;;5076703;28;20070;-73
2023/10/18 04:56:11;;;;;;;46.38;19.45;;;;;;;;;;5110453;28;20048;-73
2023/10/18 04:58:40;;;;;;;39.55;17.67;;;;;;;;;;5060547;28;20044;-73
2023/10/18 05:01:08;;;;;;;56.47;21.45;;;;;;;;;;5091843;28;20047;-76
2023/10/18 05:03:34;;;;;;;45.80;19.92;;;;;;;;;;5087875;28;20048;-72
2023/10/18 05:06:00;;;;;;;29.83;14.85;;;;;;;;;;5079070;28;20048;-73
2023/10/18 05:08:30;;;;;;;30.92;16.02;;;;;;;;;;5057684;28;20083;-74
2023/10/18 05:11:22;;;;;;;31.08;16.55;;;;;;;;;;5073131;28;20084;-75
2023/10/18 05:13:42;;;;;;;34.30;17.08;;;;;;;;;;5074040;28;20060;-72
2023/10/18 05:16:12;;;;;;;25.13;14.15;;;;;;;;;;5093092;28;20044;-75
2023/10/18 05:18:38;;;;;;;31.92;15.55;;;;;;;;;;5076856;28;20044;-73
2023/10/18 05:21:10;;;;;;;31.65;15.55;;;;;;;;;;5110750;27;20052;-73
2023/10/18 05:23:36;;;;;;;35.13;16.48;;;;;;;;;;5075448;28;20052;-72
2023/10/18 05:28:52;;;;;;;48.80;20.70;;;;;;;;;;5093718;28;20052;-73
2023/10/18 05:33:54;;;;;;;30.02;16.05;;;;;;;;;;5073041;28;20058;-73
2023/10/18 05:43:45;;;;;;;38.22;17.02;;;;;;;;;;5076572;28;20098;-73
2023/10/18 05:46:12;;;;;;;29.30;17.08;;;;;;;;;;5109926;27;20063;-76
2023/10/18 05:48:41;;;;;;;;;;;;;;;;;;5092588;28;20044;-74
2023/10/18 05:53:51;;;;;;;29.58;15.38;;;;;;;;;;5076111;28;20638;-73
2023/10/18 05:56:22;;;;;;;44.42;19.90;;;;;;;;;;5089278;28;20435;-73
2023/10/18 05:59:15;;;;;;;28.52;15.25;;;;;;;;;;5084538;28;20082;-73
2023/10/18 06:01:34;;;;;;;28.30;14.98;;;;;;;;;;5091477;28;20048;-74
2023/10/18 06:04:00;;;;;;;29.05;14.05;;;;;;;;;;5075147;28;20036;-73
2023/10/18 06:06:26;;;;;;;29.25;15.10;;;;;;;;;;5091617;28;20127;-73
2023/10/18 06:08:57;;;;;;;30.67;16.27;;;;;;;;;;5109049;27;20378;-74
2023/10/18 06:11:23;;;;;;;36.33;17.55;;;;;;;;;;5091408;28;20044;-73
2023/10/18 06:13:49;;;;;;;35.00;16.75;;;;;;;;;;5092489;28;20425;-73
2023/10/18 06:16:18;;;;;;;32.05;17.60;;;;;;;;;;5091073;28;20447;-75
2023/10/18 06:18:51;;;;;;;42.72;17.55;;;;;;;;;;5089415;28;20553;-72
2023/10/18 06:21:20;;;;;;;64.07;22.52;;;;;;;;;;5062142;28;20059;-74
2023/10/18 06:23:56;;;;;;;75.93;27.35;;;;;;;;;;5085175;28;20040;-73
2023/10/18 06:26:28;;;;;;;54.30;23.30;;;;;;;;;;5070338;28;20088;-73
2023/10/18 06:29:11;;;;;;;58.92;23.38;;;;;;;;;;5070955;28;20041;-73
2023/10/18 06:31:46;;;;;;;57.75;21.58;;;;;;;;;;5070714;28;20049;-74
2023/10/18 06:34:17;;;;;;;50.47;23.77;;;;;;;;;;5089327;28;20044;-73
2023/10/18 06:36:43;;;;;;;39.53;17.30;;;;;;;;;;5071012;28;20102;-73
2023/10/18 06:39:24;;;;;;;35.10;17.30;;;;;;;;;;5089668;28;20056;-73
2023/10/18 06:41:52;;;;;;;43.90;20.30;;;;;;;;;;5090797;28;20473;-73
2023/10/18 06:44:18;;;;;;;29.10;15.63;;;;;;;;;;5107642;27;20147;-76
2023/10/18 06:46:47;;;;;;;36.35;16.65;;;;;;;;;;5073464;28;20924;-73
2023/10/18 06:49:13;;;;;;;49.70;21.33;;;;;;;;;;5069892;28;20481;-73
2023/10/18 06:51:49;;;;;;;32.22;17.92;;;;;;;;;;5103197;28;20437;-73
2023/10/18 06:54:19;;;;;;;31.50;15.07;;;;;;;;;;5070439;28;20131;-73
2023/10/18 06:56:48;;;;;;;30.38;16.40;;;;;;;;;;5064407;28;20046;-73
2023/10/18 06:59:14;;;;;;;29.55;14.75;;;;;;;;;;5072204;28;20060;-72
2023/10/18 07:01:54;;;;;;;28.42;14.35;;;;;;;;;;5103750;28;20501;-73
2023/10/18 07:04:27;;;;;;;26.75;13.60;;;;;;;;;;5104078;28;20401;-75
2023/10/18 07:06:54;;;;;;;31.50;15.43;;;;;;;;;;5087459;28;20405;-73
2023/10/18 07:09:26;;;;;;;38.22;16.95;;;;;;;;;;5086863;28;20044;-75
2023/10/18 07:12:03;;;;;;;43.28;19.20;;;;;;;;;;5089313;28;20130;-71
2023/10/18 07:14:32;;;;;;;35.20;17.75;;;;;;;;;;5073975;28;20056;-72
2023/10/18 07:17:01;;;;;;;26.17;15.45;;;;;;;;;;5070215;28;20407;-70
2023/10/18 07:19:29;;;;;;;24.30;14.40;;;;;;;;;;5069912;28;20041;-72
2023/10/18 07:22:06;;;;;;;26.15;13.27;;;;;;;;;;5089578;28;20076;-71
2023/10/18 07:24:34;;;;;;;28.15;13.82;;;;;;;;;;5088886;28;20044;-73
2023/10/18 07:27:03;;;;;;;31.55;15.07;;;;;;;;;;5090346;28;20097;-72
2023/10/18 07:29:31;;;;;;;31.45;16.63;;;;;;;;;;5090701;28;20052;-72
2023/10/18 07:31:59;;;;;;;25.70;12.70;;;;;;;;;;5089505;28;20075;-72
2023/10/18 07:34:28;;;;;;;27.60;14.93;;;;;;;;;;5089950;28;20519;-74
2023/10/18 07:36:55;;;;;;;22.70;13.43;;;;;;;;;;5089707;28;20044;-74
2023/10/18 07:39:24;;;;;;;;;;;;;;;;;;5090832;28;20085;-73
2023/10/18 07:41:55;;;;;;;21.88;12.07;;;;;;;;;;5071025;28;19939;-73
2023/10/18 07:44:21;;;;;;;32.00;15.93;;;;;;;;;;5073143;28;20106;-73
2023/10/18 07:46:47;;;;;;;26.90;13.68;;;;;;;;;;5070257;28;20048;-73
2023/10/18 07:49:14;;;;;;;41.17;18.42;;;;;;;;;;5054068;28;20048;-73
2023/10/18 07:51:49;;;;;;;27.70;14.27;;;;;;;;;;5086629;28;20122;-74
2023/10/18 07:54:16;;;;;;;37.65;17.63;;;;;;;;;;5070366;28;20098;-73
2023/10/18 07:56:48;;;;;;;29.42;15.32;;;;;;;;;;5069400;28;20037;-74
2023/10/18 07:59:27;;;;;;;23.75;12.57;;;;;;;;;;5071278;28;20041;-74
2023/10/18 08:02:43;;;;;;;26.35;14.27;;;;;;;;;;5074632;28;20079;-74
2023/10/18 08:04:44;;;;;;;20.30;11.57;;;;;;;;;;5059321;28;20045;-73
2023/10/18 08:07:15;;;;;;;22.50;11.98;;;;;;;;;;5097676;28;20062;-73
2023/10/18 08:09:41;;;;;;;24.00;12.80;;;;;;;;;;5070072;28;20052;-74
2023/10/18 08:15:16;;;;;;;21.55;11.65;;;;;;;;;;4996190;28;20145;-73
2023/10/18 08:17:43;;;;;;;26.40;14.32;;;;;;;;;;5055500;28;20055;-73
2023/10/18 08:22:51;;;;;;;26.65;14.27;;;;;;;;;;5084204;28;20160;-73
2023/10/18 08:25:24;;;;;;;25.90;13.90;;;;;;;;;;5062966;28;20051;-72
2023/10/18 08:27:54;;;;;;;26.65;13.75;;;;;;;;;;5111978;27;20088;-74
2023/10/18 08:30:24;;;;;;;15.82;10.00;;;;;;;;;;5089971;28;20056;-74
2023/10/18 08:32:51;;;;;;;17.50;10.48;;;;;;;;;;5081922;28;20105;-74
2023/10/18 08:35:21;;;;;;;18.83;10.05;;;;;;;;;;5096554;28;20044;-75
2023/10/18 08:37:47;;;;;;;16.40;10.05;;;;;;;;;;5119606;27;20440;-75
2023/10/18 08:40:27;;;;;;;19.38;11.32;;;;;;;;;;5067180;28;20093;-74
2023/10/18 08:42:57;;;;;;;22.55;11.27;;;;;;;;;;5092965;28;20059;-73
2023/10/18 08:45:23;;;;;;;17.52;9.13;;;;;;;;;;5090046;28;20056;-76
2023/10/18 08:47:56;;;;;;;26.20;12.93;;;;;;;;;;5100524;28;20697;-75
2023/10/18 08:50:22;;;;;;;21.08;11.88;;;;;;;;;;5088276;28;20051;-74
2023/10/18 08:52:48;;;;;;;;;;;;;;;;;;5088288;28;20047;-74
2023/10/18 08:55:43;;;;;;;17.27;9.55;;;;;;;;;;5089896;28;19923;-74
2023/10/18 08:58:08;;;;;;;13.98;8.57;;;;;;;;;;5107899;27;20094;-72
2023/10/18 09:03:00;;;;;;;22.00;11.85;;;;;;;;;;5100484;28;20082;-73
2023/10/18 09:05:27;;;;;;;17.67;10.35;;;;;;;;;;5090839;28;20076;-73
2023/10/18 09:07:53;;;;;;;18.50;10.25;;;;;;;;;;5081083;28;20045;-73
2023/10/18 09:10:54;;;;;;;22.75;11.98;;;;;;;;;;5090534;28;20048;-73
2023/10/18 09:18:20;;;;;;;16.42;9.15;;;;;;;;;;5093402;28;20059;-74
2023/10/18 09:20:46;;;;;;;18.08;9.35;;;;;;;;;;5075361;28;20048;-73
2023/10/18 09:23:22;;;;;;;;;;;;;;;;;;5092918;28;20086;-74
2023/10/18 09:28:36;;;;;;;18.60;9.43;;;;;;;;;;5080392;28;20444;-77
2023/10/18 09:31:22;;;;;;;18.52;9.80;;;;;;;;;;5075729;28;20075;-74
2023/10/18 09:33:52;;;;;;;13.95;8.70;;;;;;;;;;5071670;28;20075;-73
2023/10/18 09:36:29;;;;;;;17.77;10.32;;;;;;;;;;5075709;28;20135;-75
2023/10/18 09:38:56;;;;;;;16.92;9.70;;;;;;;;;;5074709;28;20048;-74
2023/10/18 09:41:22;;;;;;;17.73;10.10;;;;;;;;;;5090932;28;20061;-72
2023/10/18 09:43:49;;;;;;;15.93;9.65;;;;;;;;;;5057310;28;20570;-72
2023/10/18 09:46:16;;;;;;;14.57;8.88;;;;;;;;;;5091928;28;20059;-74
2023/10/18 09:48:46;;;;;;;16.67;9.60;;;;;;;;;;5081508;28;20071;-73
2023/10/18 09:51:20;;;;;;;19.00;9.02;;;;;;;;;;5080404;28;20037;-73
2023/10/18 09:53:51;;;;;;;16.15;8.82;;;;;;;;;;5053969;28;20140;-72
2023/10/18 09:56:24;;;;;;;13.27;8.48;;;;;;;;;;5090864;28;20494;-73
2023/10/18 09:58:51;;;;;;;17.15;9.65;;;;;;;;;;5075095;28;20048;-73
2023/10/18 10:01:27;;;;;;;16.55;8.20;;;;;;;;;;5091580;28;20048;-71
2023/10/18 10:03:56;;;;;;;16.55;9.13;;;;;;;;;;5091633;28;20093;-72
2023/10/18 10:06:28;;;;;;;12.95;7.63;;;;;;;;;;5075147;28;20086;-73
2023/10/18 10:09:01;;;;;;;14.05;8.35;;;;;;;;;;5091296;28;20048;-74
2023/10/18 10:11:38;;;;;;;12.57;7.47;;;;;;;;;;5091941;28;20083;-76
2023/10/18 10:14:07;;;;;;;15.50;8.18;;;;;;;;;;5105930;28;20052;-72
2023/10/18 10:16:34;;;;;;;13.60;7.97;;;;;;;;;;5077756;28;20043;-73
2023/10/18 10:19:04;;;;;;;16.38;8.07;;;;;;;;;;5073272;28;20042;-75
2023/10/18 10:21:33;;;;;;;13.07;7.68;;;;;;;;;;5081643;28;20044;-75
2023/10/18 10:24:06;;;;;;;13.40;7.55;;;;;;;;;;5088738;28;20147;-74
2023/10/18 10:26:35;;;;;;;12.63;7.65;;;;;;;;;;5074878;28;20055;-75
2023/10/18 10:31:51;;;;;;;14.88;8.45;;;;;;;;;;5086994;28;20048;-74
2023/10/18 10:34:24;;;;;;;12.00;7.30;;;;;;;;;;5070963;28;20371;-74
2023/10/18 10:37:09;;;;;;;13.93;7.85;;;;;;;;;;5114130;27;20282;-76
2023/10/18 10:39:36;;;;;;;12.52;7.72;;;;;;;;;;5072747;28;20054;-75
2023/10/18 10:42:08;;;;;;;11.50;6.72;;;;;;;;;;5090454;28;20952;-75
2023/10/18 10:44:54;;;;;;;13.98;7.85;;;;;;;;;;5074646;28;20135;-77
2023/10/18 10:47:42;;;;;;;14.02;7.82;;;;;;;;;;5091392;28;20047;-77
2023/10/18 10:50:09;;;;;;;11.95;7.22;;;;;;;;;;5074095;28;20435;-76
2023/10/18 10:52:40;;;;;;;12.73;7.70;;;;;;;;;;5089116;28;20040;-77
2023/10/18 10:55:24;;;;;;;13.15;7.82;;;;;;;;;;5068229;28;20040;-77
2023/10/18 10:57:57;;;;;;;15.75;7.45;;;;;;;;;;5075399;28;20086;-77
2023/10/18 11:00:38;;;;;;;14.00;7.13;;;;;;;;;;5077831;28;20076;-77
2023/10/18 11:03:13;;;;;;;;;;;;;;;;;;5082898;28;20041;-76
2023/10/18 11:05:45;;;;;;;11.32;6.68;;;;;;;;;;5066319;28;20034;-76
2023/10/18 11:08:22;;;;;;;12.52;7.10;;;;;;;;;;5081200;28;20496;-77
2023/10/18 11:10:49;;;;;;;12.95;7.03;;;;;;;;;;5088410;28;20040;-77
2023/10/18 11:13:22;;;;;;;;;;;;;;;;;;5077282;28;20040;-78
2023/10/18 11:15:50;;;;;;;13.02;6.82;;;;;;;;;;5066501;28;19919;-77
2023/10/18 11:18:23;;;;;;;12.73;6.95;;;;;;;;;;5090855;28;20067;-77
2023/10/18 11:21:18;;;;;;;12.25;6.57;;;;;;;;;;5085111;28;20128;-76
2023/10/18 11:23:46;;;;;;;11.43;6.65;;;;;;;;;;5056895;28;20117;-80
2023/10/18 11:26:24;;;;;;;10.13;6.22;;;;;;;;;;5082886;28;20040;-77
2023/10/18 11:28:50;;;;;;;10.73;6.40;;;;;;;;;;5089561;28;20048;-74
2023/10/18 11:31:16;;;;;;;;;;;;;;;;;;5090385;28;20048;-77
2023/10/18 11:33:54;;;;;;;11.88;6.50;;;;;;;;;;5088316;28;19927;-76
2023/10/18 11:36:20;;;;;;;9.27;5.65;;;;;;;;;;5089944;28;20517;-77
2023/10/18 11:41:35;;;;;;;9.57;5.80;;;;;;;;;;5098162;28;20055;-76
2023/10/18 11:44:07;;;;;;;10.50;6.50;;;;;;;;;;5079180;28;20063;-76
2023/10/18 11:46:49;;;;;;;9.98;5.85;;;;;;;;;;5087881;28;20051;-77
2023/10/18 11:49:22;;;;;;;10.07;5.88;;;;;;;;;;5073582;28;20056;-77
2023/10/18 11:51:54;;;;;;;9.93;5.93;;;;;;;;;;5074902;28;20051;-76
2023/10/18 11:54:28;;;;;;;11.13;5.95;;;;;;;;;;5088596;28;20052;-76
2023/10/18 11:56:57;;;;;;;9.45;5.35;;;;;;;;;;5088059;28;20529;-77
2023/10/18 11:59:28;;;;;;;9.75;6.20;;;;;;;;;;5070592;28;20048;-76
2023/10/18 12:01:58;;;;;;;9.38;6.00;;;;;;;;;;5088612;28;20426;-76
2023/10/18 12:04:27;;;;;;;8.80;5.80;;;;;;;;;;5090477;28;20389;-76
2023/10/18 12:06:57;;;;;;;8.60;5.30;;;;;;;;;;5072253;28;20044;-77
2023/10/18 12:09:30;;;;;;;10.20;5.63;;;;;;;;;;5088947;28;20127;-76
2023/10/18 12:11:56;;;;;;;14.00;5.65;;;;;;;;;;5089644;28;20052;-76
2023/10/18 12:14:23;;;;;;;8.65;5.47;;;;;;;;;;5089480;28;20046;-76
2023/10/18 12:16:49;;;;;;;;;;;;;;;;;;5090612;28;20098;-77
2023/10/18 12:19:15;;;;;;;10.85;5.72;;;;;;;;;;5071539;28;19968;-76
2023/10/18 12:21:48;;;;;;;8.10;4.90;;;;;;;;;;5088809;28;20478;-77
2023/10/18 12:24:15;;;;;;;9.00;5.78;;;;;;;;;;5084636;28;20055;-76
2023/10/18 12:26:43;;;;;;;9.45;5.75;;;;;;;;;;5052745;28;20052;-77
2023/10/18 12:29:15;;;;;;;11.13;6.47;;;;;;;;;;5089246;28;20055;-76
2023/10/18 12:31:42;;;;;;;10.02;6.20;;;;;;;;;;5083532;28;20056;-76
2023/10/18 12:34:09;;;;;;;10.50;6.10;;;;;;;;;;5088176;28;20108;-77
2023/10/18 12:36:39;;;;;;;10.02;5.70;;;;;;;;;;5072516;28;20056;-75
2023/10/18 12:39:08;;;;;;;10.27;5.65;;;;;;;;;;5088645;28;20485;-76
2023/10/18 12:41:40;;;;;;;9.55;5.55;;;;;;;;;;5068037;28;20052;-76
2023/10/18 12:44:11;;;;;;;9.65;5.70;;;;;;;;;;5053584;28;20080;-77
2023/10/18 12:46:41;;;;;;;10.60;6.00;;;;;;;;;;5085691;28;20485;-76
2023/10/18 12:49:10;;;;;;;11.05;5.80;;;;;;;;;;5092674;28;20047;-76
2023/10/18 12:51:43;;;;;;;10.27;6.13;;;;;;;;;;5075544;28;20066;-77
2023/10/18 12:54:10;;;;;;;7.63;5.30;;;;;;;;;;5075414;28;20469;-73
2023/10/18 12:56:43;;;;;;;10.23;5.88;;;;;;;;;;5093293;28;20059;-77
2023/10/18 12:59:22;;;;;;;10.77;6.13;;;;;;;;;;5092506;28;20044;-74
2023/10/18 13:01:49;;;;;;;9.05;5.38;;;;;;;;;;5087909;28;20051;-77
2023/10/18 13:04:22;;;;;;;9.98;5.68;;;;;;;;;;5089708;28;20657;-77
2023/10/18 13:06:48;;;;;;;9.80;5.82;;;;;;;;;;5076474;28;20067;-77
2023/10/18 13:09:15;;;;;;;11.40;6.75;;;;;;;;;;5091003;28;20101;-77
2023/10/18 13:12:00;;;;;;;9.63;5.93;;;;;;;;;;5093189;28;20047;-78
2023/10/18 13:14:29;;;;;;;10.75;5.22;;;;;;;;;;5091212;28;20049;-77
2023/10/18 13:17:05;;;;;;;9.55;5.55;;;;;;;;;;5089839;28;20103;-78
2023/10/18 13:19:31;;;;;;;10.43;5.78;;;;;;;;;;5092815;28;20056;-77
2023/10/18 13:21:57;;;;;;;9.02;5.75;;;;;;;;;;5090305;28;20040;-80
2023/10/18 13:26:51;;;;;;;;;;;;;;;;;;5076188;28;20116;-77
2023/10/18 13:31:47;;;;;;;10.30;5.78;;;;;;;;;;5092120;28;20044;-78
2023/10/18 13:34:19;;;;;;;9.30;5.78;;;;;;;;;;5074996;28;20097;-77
2023/10/18 13:36:49;;;;;;;10.40;6.05;;;;;;;;;;5091740;28;20040;-77
2023/10/18 13:39:16;;;;;;;10.05;5.88;;;;;;;;;;5091221;28;20051;-77
2023/10/18 13:41:46;;;;;;;8.63;5.50;;;;;;;;;;5072906;28;20048;-78
2023/10/18 13:44:19;;;;;;;8.88;5.53;;;;;;;;;;5091843;28;20477;-78
2023/10/18 13:46:55;;;;;;;10.43;6.15;;;;;;;;;;5073226;28;20036;-77
2023/10/18 13:49:23;;;;;;;9.48;5.57;;;;;;;;;;5092044;28;20062;-77
2023/10/18 13:51:50;;;;;;;8.93;5.63;;;;;;;;;;5091289;28;20545;-78
2023/10/18 13:54:16;;;;;;;10.45;6.18;;;;;;;;;;5088588;28;20032;-78
2023/10/18 13:56:43;;;;;;;8.50;5.15;;;;;;;;;;5087548;28;20101;-77
2023/10/18 13:59:10;;;;;;;9.20;5.47;;;;;;;;;;5093407;28;20110;-78
2023/10/18 14:01:38;;;;;;;10.18;6.05;;;;;;;;;;5088578;28;20063;-74
2023/10/18 14:04:05;;;;;;;9.88;5.78;;;;;;;;;;5078192;28;20047;-74
2023/10/18 14:06:37;;;;;;;9.10;5.47;;;;;;;;;;5091811;28;20070;-80
2023/10/18 14:09:10;;;;;;;;;;;;;;;;;;5053699;28;20078;-81
2023/10/18 14:11:39;;;;;;;10.15;5.88;;;;;;;;;;5057729;28;20511;-80
2023/10/18 14:14:07;;;;;;;8.65;5.47;;;;;;;;;;5070944;28;20170;-79
2023/10/18 14:16:34;;;;;;;11.07;6.35;;;;;;;;;;5055525;28;20081;-78
2023/10/18 14:19:01;;;;;;;9.75;5.93;;;;;;;;;;5084517;28;20110;-79
2023/10/18 14:21:29;;;;;;;9.95;5.80;;;;;;;;;;5090993;28;20055;-79
2023/10/18 14:23:59;;;;;;;11.32;6.00;;;;;;;;;;5091555;28;20036;-78
2023/10/18 14:26:26;;;;;;;12.63;5.55;;;;;;;;;;5091696;28;20091;-78
2023/10/18 14:28:52;;;;;;;11.15;6.05;;;;;;;;;;5074977;28;20495;-78
2023/10/18 14:31:20;;;;;;;9.30;5.60;;;;;;;;;;5061713;28;20047;-79
2023/10/18 14:33:47;;;;;;;11.38;5.82;;;;;;;;;;5054642;28;20059;-79
2023/10/18 14:36:15;;;;;;;10.15;5.55;;;;;;;;;;5054288;28;20124;-79
2023/10/18 14:38:41;;;;;;;9.35;5.55;;;;;;;;;;5060377;28;20052;-79
2023/10/18 14:41:13;;;;;;;11.93;6.28;;;;;;;;;;5073221;28;20039;-79
2023/10/18 14:43:43;;;;;;;8.60;5.03;;;;;;;;;;5080060;28;20063;-79
2023/10/18 14:46:10;;;;;;;11.13;6.15;;;;;;;;;;5072243;28;20047;-78
2023/10/18 14:48:42;;;;;;;10.18;6.07;;;;;;;;;;5090972;28;20055;-79
2023/10/18 14:51:09;;;;;;;12.82;6.45;;;;;;;;;;5070083;28;20044;-78
2023/10/18 14:53:36;;;;;;;10.90;5.60;;;;;;;;;;5064580;28;20094;-78
2023/10/18 14:56:12;;;;;;;10.88;6.57;;;;;;;;;;5054178;28;20555;-80
2023/10/18 14:58:38;;;;;;;10.77;5.97;;;;;;;;;;5054427;28;20482;-78
2023/10/18 15:01:04;;;;;;;11.23;6.30;;;;;;;;;;5071091;28;20044;-78
2023/10/18 15:03:30;;;;;;;13.48;6.32;;;;;;;;;;5053618;28;20546;-78
2023/10/18 15:05:57;;;;;;;;;;;;;;;;;;5071300;28;20048;-79
2023/10/18 15:08:24;;;;;;;10.52;6.22;;;;;;;;;;5069424;28;20385;-78
2023/10/18 15:10:50;;;;;;;11.90;6.15;;;;;;;;;;5052883;28;20070;-78
2023/10/18 15:13:17;;;;;;;12.05;6.43;;;;;;;;;;5057044;28;20055;-80
2023/10/18 15:15:43;;;;;;;11.15;6.40;;;;;;;;;;5074180;28;20055;-78
2023/10/18 15:18:10;;;;;;;12.80;6.97;;;;;;;;;;5090489;28;20105;-80
2023/10/18 15:20:37;;;;;;;;;;;;;;;;;;5074367;28;20052;-79
2023/10/18 15:23:05;;;;;;;13.35;6.55;;;;;;;;;;5089035;28;19920;-78
2023/10/18 15:25:32;;;;;;;13.40;7.63;;;;;;;;;;5089063;28;20516;-78
2023/10/18 15:27:58;;;;;;;12.38;6.40;;;;;;;;;;5090907;28;20071;-78
2023/10/18 15:30:25;;;;;;;16.25;8.07;;;;;;;;;;5073633;28;20059;-78
2023/10/18 15:32:52;;;;;;;16.70;7.43;;;;;;;;;;5090581;28;20362;-78
2023/10/18 15:35:18;;;;;;;12.73;7.53;;;;;;;;;;5087296;28;20067;-78
2023/10/18 15:37:45;;;;;;;13.88;6.93;;;;;;;;;;5066216;28;20121;-78
2023/10/18 15:40:15;;;;;;;14.18;7.90;;;;;;;;;;5062555;28;20493;-81
2023/10/18 15:42:45;;;;;;;12.43;6.82;;;;;;;;;;5063376;28;20084;-78
2023/10/18 15:45:11;;;;;;;13.32;7.43;;;;;;;;;;5069463;28;20052;-81
2023/10/18 15:47:38;;;;;;;11.60;6.90;;;;;;;;;;5053193;28;20102;-78
2023/10/18 15:50:06;;;;;;;15.70;7.43;;;;;;;;;;5069962;28;20110;-78